sensor_id;sensor_type;location;lat;lon;timestamp;temperature;humidity
27270;DHT22;14769;56.934;24.176;2022-07-04T00:00:12;16.40;99.90
27270;DHT22;14769;56.934;24.176;2022-07-04T00:01:14;16.30;99.90
27270;DHT22;14769;56.934;24.176;2022-07-04T00:02:16;16.30;99.90
27270;DHT22;14769;56.934;24.176;2022-07-04T00:03:18;16.20;99.90
27270;DHT22;14769;56.934;24.176;2022-07-04T00:04:20;16.20;99.90
27270;DHT22;14769;56.934;24.176;2022-07-04T00:05:22;16.20;99.90
27270;DHT22;14769;56.934;24.176;2022-07-04T00:06:24;16.20;99.90
27270;DHT22;14769;56.934;24.176;2022-07-04T00:07:26;16.20;99.90
27270;DHT22;14769;56.934;24.176;2022-07-04T00:08:28;16.20;99.90
27270;DHT22;14769;56.934;24.176;2022-07-04T00:09:30;16.20;99.90
27270;DHT22;14769;56.934;24.176;2022-07-04T00:10:33;16.20;99.90
27270;DHT22;14769;56.934;24.176;2022-07-04T00:11:35;16.20;99.90
27270;DHT22;14769;56.934;24.176;2022-07-04T00:12:37;16.10;99.90
27270;DHT22;14769;56.934;24.176;2022-07-04T00:13:39;16.10;99.90
27270;DHT22;14769;56.934;24.176;2022-07-04T00:14:41;16.00;99.90
27270;DHT22;14769;56.934;24.176;2022-07-04T00:15:43;16.00;99.90
27270;DHT22;14769;56.934;24.176;2022-07-04T00:16:45;16.10;99.90
27270;DHT22;14769;56.934;24.176;2022-07-04T00:17:47;16.10;99.90
27270;DHT22;14769;56.934;24.176;2022-07-04T00:18:49;16.10;99.90
27270;DHT22;14769;56.934;24.176;2022-07-04T00:19:51;16.20;99.90
27270;DHT22;14769;56.934;24.176;2022-07-04T00:20:53;16.20;99.90
27270;DHT22;14769;56.934;24.176;2022-07-04T00:21:55;16.20;99.90
27270;DHT22;14769;56.934;24.176;2022-07-04T00:22:57;16.20;99.90
27270;DHT22;14769;56.934;24.176;2022-07-04T00:24:00;16.20;99.90
27270;DHT22;14769;56.934;24.176;2022-07-04T00:25:02;16.20;99.90
27270;DHT22;14769;56.934;24.176;2022-07-04T00:26:04;16.20;99.90
27270;DHT22;14769;56.934;24.176;2022-07-04T00:27:06;16.20;99.90
27270;DHT22;14769;56.934;24.176;2022-07-04T00:28:08;16.10;99.90
27270;DHT22;14769;56.934;24.176;2022-07-04T00:29:10;16.10;99.90
27270;DHT22;14769;56.934;24.176;2022-07-04T00:30:12;16.10;99.90
27270;DHT22;14769;56.934;24.176;2022-07-04T00:31:14;16.10;99.90
27270;DHT22;14769;56.934;24.176;2022-07-04T00:32:16;16.10;99.90
27270;DHT22;14769;56.934;24.176;2022-07-04T00:33:18;16.10;99.90
27270;DHT22;14769;56.934;24.176;2022-07-04T00:34:20;16.20;99.90
27270;DHT22;14769;56.934;24.176;2022-07-04T00:35:23;16.20;99.90
27270;DHT22;14769;56.934;24.176;2022-07-04T00:36:25;16.20;99.90
27270;DHT22;14769;56.934;24.176;2022-07-04T00:37:26;16.20;99.90
27270;DHT22;14769;56.934;24.176;2022-07-04T00:38:29;16.20;99.90
27270;DHT22;14769;56.934;24.176;2022-07-04T00:39:30;16.20;99.90
27270;DHT22;14769;56.934;24.176;2022-07-04T00:40:32;16.20;99.90
27270;DHT22;14769;56.934;24.176;2022-07-04T00:41:34;16.20;99.90
27270;DHT22;14769;56.934;24.176;2022-07-04T00:42:36;16.10;99.90
27270;DHT22;14769;56.934;24.176;2022-07-04T00:43:39;16.10;99.90
27270;DHT22;14769;56.934;24.176;2022-07-04T00:45:01;16.10;99.90
27270;DHT22;14769;56.934;24.176;2022-07-04T00:46:05;16.10;99.90
27270;DHT22;14769;56.934;24.176;2022-07-04T00:47:08;16.10;99.90
27270;DHT22;14769;56.934;24.176;2022-07-04T00:48:10;16.00;99.90
27270;DHT22;14769;56.934;24.176;2022-07-04T00:49:15;16.00;99.90
27270;DHT22;14769;56.934;24.176;2022-07-04T00:50:17;16.00;99.90
27270;DHT22;14769;56.934;24.176;2022-07-04T00:51:19;16.00;99.90
27270;DHT22;14769;56.934;24.176;2022-07-04T00:52:22;16.00;99.90
27270;DHT22;14769;56.934;24.176;2022-07-04T00:53:24;16.00;99.90
27270;DHT22;14769;56.934;24.176;2022-07-04T00:54:28;16.10;99.90
27270;DHT22;14769;56.934;24.176;2022-07-04T00:55:31;16.10;99.90
27270;DHT22;14769;56.934;24.176;2022-07-04T00:56:38;16.00;99.90
27270;DHT22;14769;56.934;24.176;2022-07-04T00:57:40;16.00;99.90
27270;DHT22;14769;56.934;24.176;2022-07-04T00:58:42;16.00;99.90
27270;DHT22;14769;56.934;24.176;2022-07-04T00:59:44;16.00;99.90
27270;DHT22;14769;56.934;24.176;2022-07-04T01:00:46;15.90;99.90
27270;DHT22;14769;56.934;24.176;2022-07-04T01:01:48;15.90;99.90
27270;DHT22;14769;56.934;24.176;2022-07-04T01:02:50;15.90;99.90
27270;DHT22;14769;56.934;24.176;2022-07-04T01:03:52;15.90;99.90
27270;DHT22;14769;56.934;24.176;2022-07-04T01:04:54;15.90;99.90
27270;DHT22;14769;56.934;24.176;2022-07-04T01:05:59;15.90;99.90
27270;DHT22;14769;56.934;24.176;2022-07-04T01:07:03;15.90;99.90
27270;DHT22;14769;56.934;24.176;2022-07-04T01:08:05;15.90;99.90
27270;DHT22;14769;56.934;24.176;2022-07-04T01:09:07;15.90;99.90
27270;DHT22;14769;56.934;24.176;2022-07-04T01:10:10;15.90;99.90
27270;DHT22;14769;56.934;24.176;2022-07-04T01:11:14;15.90;99.90
27270;DHT22;14769;56.934;24.176;2022-07-04T01:12:29;15.90;99.90
27270;DHT22;14769;56.934;24.176;2022-07-04T01:13:31;15.90;99.90
27270;DHT22;14769;56.934;24.176;2022-07-04T01:14:37;15.80;99.90
27270;DHT22;14769;56.934;24.176;2022-07-04T01:15:39;15.80;99.90
27270;DHT22;14769;56.934;24.176;2022-07-04T01:16:41;15.70;99.90
27270;DHT22;14769;56.934;24.176;2022-07-04T01:17:43;15.70;99.90
27270;DHT22;14769;56.934;24.176;2022-07-04T01:18:45;15.70;99.90
27270;DHT22;14769;56.934;24.176;2022-07-04T01:19:48;15.70;99.90
27270;DHT22;14769;56.934;24.176;2022-07-04T01:20:50;15.70;99.90
27270;DHT22;14769;56.934;24.176;2022-07-04T01:21:52;15.70;99.90
27270;DHT22;14769;56.934;24.176;2022-07-04T01:22:54;15.70;99.90
27270;DHT22;14769;56.934;24.176;2022-07-04T01:23:56;15.70;99.90
27270;DHT22;14769;56.934;24.176;2022-07-04T01:24:58;15.70;99.90
27270;DHT22;14769;56.934;24.176;2022-07-04T01:26:02;15.80;99.90
27270;DHT22;14769;56.934;24.176;2022-07-04T01:27:04;15.70;99.90
27270;DHT22;14769;56.934;24.176;2022-07-04T01:28:06;15.80;99.90
27270;DHT22;14769;56.934;24.176;2022-07-04T01:29:08;15.80;99.90
27270;DHT22;14769;56.934;24.176;2022-07-04T01:30:11;15.80;99.90
27270;DHT22;14769;56.934;24.176;2022-07-04T01:31:13;15.70;99.90
27270;DHT22;14769;56.934;24.176;2022-07-04T01:32:15;15.80;99.90
27270;DHT22;14769;56.934;24.176;2022-07-04T01:33:17;15.80;99.90
27270;DHT22;14769;56.934;24.176;2022-07-04T01:34:19;15.80;99.90
27270;DHT22;14769;56.934;24.176;2022-07-04T01:35:22;15.70;99.90
27270;DHT22;14769;56.934;24.176;2022-07-04T01:36:24;15.70;99.90
27270;DHT22;14769;56.934;24.176;2022-07-04T01:37:26;15.60;99.90
27270;DHT22;14769;56.934;24.176;2022-07-04T01:38:28;15.60;99.90
27270;DHT22;14769;56.934;24.176;2022-07-04T01:39:30;15.60;99.90
27270;DHT22;14769;56.934;24.176;2022-07-04T01:40:32;15.60;99.90
27270;DHT22;14769;56.934;24.176;2022-07-04T01:41:34;15.60;99.90
27270;DHT22;14769;56.934;24.176;2022-07-04T01:42:40;15.70;99.90
27270;DHT22;14769;56.934;24.176;2022-07-04T01:43:42;15.70;99.90
27270;DHT22;14769;56.934;24.176;2022-07-04T01:44:44;15.70;99.90
27270;DHT22;14769;56.934;24.176;2022-07-04T01:45:46;15.70;99.90
27270;DHT22;14769;56.934;24.176;2022-07-04T01:46:49;15.80;99.90
27270;DHT22;14769;56.934;24.176;2022-07-04T01:47:51;15.80;99.90
27270;DHT22;14769;56.934;24.176;2022-07-04T01:48:53;15.90;99.90
27270;DHT22;14769;56.934;24.176;2022-07-04T01:49:55;15.90;99.90
27270;DHT22;14769;56.934;24.176;2022-07-04T01:50:56;15.90;99.90
27270;DHT22;14769;56.934;24.176;2022-07-04T01:51:58;16.00;99.90
27270;DHT22;14769;56.934;24.176;2022-07-04T01:53:00;16.00;99.90
27270;DHT22;14769;56.934;24.176;2022-07-04T01:54:03;16.10;99.90
27270;DHT22;14769;56.934;24.176;2022-07-04T01:55:05;16.10;99.90
27270;DHT22;14769;56.934;24.176;2022-07-04T01:56:07;16.10;99.90
27270;DHT22;14769;56.934;24.176;2022-07-04T01:57:09;16.20;99.90
27270;DHT22;14769;56.934;24.176;2022-07-04T01:58:11;16.10;99.90
27270;DHT22;14769;56.934;24.176;2022-07-04T01:59:13;16.10;99.90
27270;DHT22;14769;56.934;24.176;2022-07-04T02:00:15;16.10;99.90
27270;DHT22;14769;56.934;24.176;2022-07-04T02:01:36;16.00;99.90
27270;DHT22;14769;56.934;24.176;2022-07-04T02:02:39;15.90;99.90
27270;DHT22;14769;56.934;24.176;2022-07-04T02:03:41;15.90;99.90
27270;DHT22;14769;56.934;24.176;2022-07-04T02:04:43;15.90;99.90
27270;DHT22;14769;56.934;24.176;2022-07-04T02:05:45;15.90;99.90
27270;DHT22;14769;56.934;24.176;2022-07-04T02:06:47;15.90;99.90
27270;DHT22;14769;56.934;24.176;2022-07-04T02:07:49;16.00;99.90
27270;DHT22;14769;56.934;24.176;2022-07-04T02:08:51;16.00;99.90
27270;DHT22;14769;56.934;24.176;2022-07-04T02:10:12;16.10;99.90
27270;DHT22;14769;56.934;24.176;2022-07-04T02:11:14;16.10;99.90
27270;DHT22;14769;56.934;24.176;2022-07-04T02:12:16;16.10;99.90
27270;DHT22;14769;56.934;24.176;2022-07-04T02:13:37;16.20;99.90
27270;DHT22;14769;56.934;24.176;2022-07-04T02:14:38;16.20;99.90
27270;DHT22;14769;56.934;24.176;2022-07-04T02:15:43;16.30;99.90
27270;DHT22;14769;56.934;24.176;2022-07-04T02:16:45;16.30;99.90
27270;DHT22;14769;56.934;24.176;2022-07-04T02:17:47;16.30;99.90
27270;DHT22;14769;56.934;24.176;2022-07-04T02:18:49;16.30;99.90
27270;DHT22;14769;56.934;24.176;2022-07-04T02:19:51;16.40;99.90
27270;DHT22;14769;56.934;24.176;2022-07-04T02:20:53;16.50;99.90
27270;DHT22;14769;56.934;24.176;2022-07-04T02:21:55;16.50;99.90
27270;DHT22;14769;56.934;24.176;2022-07-04T02:22:57;16.60;99.90
27270;DHT22;14769;56.934;24.176;2022-07-04T02:23:59;16.60;99.90
27270;DHT22;14769;56.934;24.176;2022-07-04T02:25:01;16.60;99.90
27270;DHT22;14769;56.934;24.176;2022-07-04T02:26:03;16.60;99.90
27270;DHT22;14769;56.934;24.176;2022-07-04T02:27:05;16.70;99.90
27270;DHT22;14769;56.934;24.176;2022-07-04T02:28:07;16.70;99.90
27270;DHT22;14769;56.934;24.176;2022-07-04T02:29:09;16.80;99.90
27270;DHT22;14769;56.934;24.176;2022-07-04T02:30:11;16.80;99.90
27270;DHT22;14769;56.934;24.176;2022-07-04T02:31:14;16.80;99.90
27270;DHT22;14769;56.934;24.176;2022-07-04T02:32:16;16.80;99.90
27270;DHT22;14769;56.934;24.176;2022-07-04T02:33:18;16.80;99.90
27270;DHT22;14769;56.934;24.176;2022-07-04T02:34:20;16.90;99.90
27270;DHT22;14769;56.934;24.176;2022-07-04T02:35:21;16.90;99.90
27270;DHT22;14769;56.934;24.176;2022-07-04T02:36:23;17.00;99.90
27270;DHT22;14769;56.934;24.176;2022-07-04T02:37:25;17.00;99.90
27270;DHT22;14769;56.934;24.176;2022-07-04T02:38:27;17.00;99.90
27270;DHT22;14769;56.934;24.176;2022-07-04T02:39:29;17.00;99.90
27270;DHT22;14769;56.934;24.176;2022-07-04T02:40:31;17.10;99.90
27270;DHT22;14769;56.934;24.176;2022-07-04T02:41:33;17.10;99.90
27270;DHT22;14769;56.934;24.176;2022-07-04T02:42:36;17.10;99.90
27270;DHT22;14769;56.934;24.176;2022-07-04T02:43:38;17.10;99.90
27270;DHT22;14769;56.934;24.176;2022-07-04T02:44:39;17.00;99.90
27270;DHT22;14769;56.934;24.176;2022-07-04T02:45:43;17.00;99.90
27270;DHT22;14769;56.934;24.176;2022-07-04T02:46:44;17.00;99.90
27270;DHT22;14769;56.934;24.176;2022-07-04T02:47:46;17.00;99.90
27270;DHT22;14769;56.934;24.176;2022-07-04T02:48:48;17.00;99.90
27270;DHT22;14769;56.934;24.176;2022-07-04T02:49:50;17.00;99.90
27270;DHT22;14769;56.934;24.176;2022-07-04T02:50:52;17.00;99.90
27270;DHT22;14769;56.934;24.176;2022-07-04T02:51:54;17.00;99.90
27270;DHT22;14769;56.934;24.176;2022-07-04T02:52:56;17.00;99.90
27270;DHT22;14769;56.934;24.176;2022-07-04T02:53:57;17.00;99.90
27270;DHT22;14769;56.934;24.176;2022-07-04T02:54:59;17.00;99.90
27270;DHT22;14769;56.934;24.176;2022-07-04T02:56:01;17.10;99.90
27270;DHT22;14769;56.934;24.176;2022-07-04T02:57:06;17.10;99.90
27270;DHT22;14769;56.934;24.176;2022-07-04T02:58:08;17.10;99.90
27270;DHT22;14769;56.934;24.176;2022-07-04T02:59:10;17.10;99.90
27270;DHT22;14769;56.934;24.176;2022-07-04T03:00:13;17.10;99.90
27270;DHT22;14769;56.934;24.176;2022-07-04T03:01:15;17.10;99.90
27270;DHT22;14769;56.934;24.176;2022-07-04T03:02:17;17.20;99.90
27270;DHT22;14769;56.934;24.176;2022-07-04T03:03:19;17.20;99.90
27270;DHT22;14769;56.934;24.176;2022-07-04T03:04:21;17.20;99.90
27270;DHT22;14769;56.934;24.176;2022-07-04T03:05:23;17.30;99.90
27270;DHT22;14769;56.934;24.176;2022-07-04T03:06:25;17.30;99.90
27270;DHT22;14769;56.934;24.176;2022-07-04T03:07:27;17.40;99.90
27270;DHT22;14769;56.934;24.176;2022-07-04T03:08:29;17.40;99.90
27270;DHT22;14769;56.934;24.176;2022-07-04T03:09:31;17.40;99.90
27270;DHT22;14769;56.934;24.176;2022-07-04T03:10:32;17.50;99.90
27270;DHT22;14769;56.934;24.176;2022-07-04T03:11:35;17.50;99.90
27270;DHT22;14769;56.934;24.176;2022-07-04T03:12:37;17.50;99.90
27270;DHT22;14769;56.934;24.176;2022-07-04T03:13:40;17.60;99.90
27270;DHT22;14769;56.934;24.176;2022-07-04T03:14:41;17.60;99.90
27270;DHT22;14769;56.934;24.176;2022-07-04T03:15:43;17.60;99.90
27270;DHT22;14769;56.934;24.176;2022-07-04T03:16:45;17.50;99.90
27270;DHT22;14769;56.934;24.176;2022-07-04T03:17:48;17.60;99.90
27270;DHT22;14769;56.934;24.176;2022-07-04T03:18:50;17.60;99.90
27270;DHT22;14769;56.934;24.176;2022-07-04T03:19:51;17.60;99.90
27270;DHT22;14769;56.934;24.176;2022-07-04T03:20:53;17.60;99.90
27270;DHT22;14769;56.934;24.176;2022-07-04T03:21:55;17.70;99.90
27270;DHT22;14769;56.934;24.176;2022-07-04T03:22:57;17.70;99.90
27270;DHT22;14769;56.934;24.176;2022-07-04T03:23:59;17.70;99.90
27270;DHT22;14769;56.934;24.176;2022-07-04T03:25:01;17.80;99.90
27270;DHT22;14769;56.934;24.176;2022-07-04T03:26:03;17.80;99.90
27270;DHT22;14769;56.934;24.176;2022-07-04T03:27:05;17.80;99.90
27270;DHT22;14769;56.934;24.176;2022-07-04T03:28:07;17.80;99.90
27270;DHT22;14769;56.934;24.176;2022-07-04T03:29:09;17.80;99.90
27270;DHT22;14769;56.934;24.176;2022-07-04T03:30:11;17.80;99.90
27270;DHT22;14769;56.934;24.176;2022-07-04T03:31:13;17.90;99.90
27270;DHT22;14769;56.934;24.176;2022-07-04T03:32:15;17.90;99.90
27270;DHT22;14769;56.934;24.176;2022-07-04T03:33:17;18.00;99.90
27270;DHT22;14769;56.934;24.176;2022-07-04T03:34:19;18.00;99.90
27270;DHT22;14769;56.934;24.176;2022-07-04T03:35:21;18.00;99.90
27270;DHT22;14769;56.934;24.176;2022-07-04T03:36:23;18.10;99.90
27270;DHT22;14769;56.934;24.176;2022-07-04T03:37:25;18.10;99.90
27270;DHT22;14769;56.934;24.176;2022-07-04T03:38:27;18.10;99.90
27270;DHT22;14769;56.934;24.176;2022-07-04T03:39:29;18.20;99.90
27270;DHT22;14769;56.934;24.176;2022-07-04T03:40:31;18.20;99.90
27270;DHT22;14769;56.934;24.176;2022-07-04T03:41:34;18.10;99.90
27270;DHT22;14769;56.934;24.176;2022-07-04T03:42:37;18.20;99.90
27270;DHT22;14769;56.934;24.176;2022-07-04T03:43:39;18.20;99.90
27270;DHT22;14769;56.934;24.176;2022-07-04T03:44:41;18.20;99.90
27270;DHT22;14769;56.934;24.176;2022-07-04T03:45:43;18.20;99.90
27270;DHT22;14769;56.934;24.176;2022-07-04T03:46:46;18.20;99.90
27270;DHT22;14769;56.934;24.176;2022-07-04T03:47:47;18.30;99.90
27270;DHT22;14769;56.934;24.176;2022-07-04T03:48:49;18.20;99.90
27270;DHT22;14769;56.934;24.176;2022-07-04T03:49:51;18.30;99.90
27270;DHT22;14769;56.934;24.176;2022-07-04T03:50:53;18.30;99.90
27270;DHT22;14769;56.934;24.176;2022-07-04T03:51:55;18.30;99.90
27270;DHT22;14769;56.934;24.176;2022-07-04T03:52:57;18.40;99.90
27270;DHT22;14769;56.934;24.176;2022-07-04T03:53:59;18.40;99.90
27270;DHT22;14769;56.934;24.176;2022-07-04T03:55:00;18.40;99.90
27270;DHT22;14769;56.934;24.176;2022-07-04T03:56:02;18.40;99.90
27270;DHT22;14769;56.934;24.176;2022-07-04T03:57:05;18.50;99.90
27270;DHT22;14769;56.934;24.176;2022-07-04T03:58:06;18.50;99.90
27270;DHT22;14769;56.934;24.176;2022-07-04T03:59:08;18.50;99.90
27270;DHT22;14769;56.934;24.176;2022-07-04T04:00:10;18.60;99.90
27270;DHT22;14769;56.934;24.176;2022-07-04T04:01:13;18.60;99.90
27270;DHT22;14769;56.934;24.176;2022-07-04T04:02:15;18.60;99.90
27270;DHT22;14769;56.934;24.176;2022-07-04T04:03:17;18.60;99.90
27270;DHT22;14769;56.934;24.176;2022-07-04T04:04:37;18.70;99.90
27270;DHT22;14769;56.934;24.176;2022-07-04T04:05:58;18.70;99.90
27270;DHT22;14769;56.934;24.176;2022-07-04T04:07:00;18.60;99.90
27270;DHT22;14769;56.934;24.176;2022-07-04T04:08:02;18.60;99.90
27270;DHT22;14769;56.934;24.176;2022-07-04T04:09:03;18.60;99.90
27270;DHT22;14769;56.934;24.176;2022-07-04T04:10:11;18.60;99.90
27270;DHT22;14769;56.934;24.176;2022-07-04T04:11:13;18.60;99.90
27270;DHT22;14769;56.934;24.176;2022-07-04T04:12:15;18.60;99.90
27270;DHT22;14769;56.934;24.176;2022-07-04T04:13:17;18.60;99.90
27270;DHT22;14769;56.934;24.176;2022-07-04T04:14:20;18.60;99.90
27270;DHT22;14769;56.934;24.176;2022-07-04T04:15:22;18.50;99.90
27270;DHT22;14769;56.934;24.176;2022-07-04T04:16:24;18.60;99.90
27270;DHT22;14769;56.934;24.176;2022-07-04T04:17:26;18.60;99.90
27270;DHT22;14769;56.934;24.176;2022-07-04T04:18:28;18.60;99.90
27270;DHT22;14769;56.934;24.176;2022-07-04T04:19:30;18.60;99.90
27270;DHT22;14769;56.934;24.176;2022-07-04T04:20:32;18.60;99.90
27270;DHT22;14769;56.934;24.176;2022-07-04T04:21:34;18.70;99.90
27270;DHT22;14769;56.934;24.176;2022-07-04T04:22:37;18.70;99.90
27270;DHT22;14769;56.934;24.176;2022-07-04T04:23:38;18.70;99.90
27270;DHT22;14769;56.934;24.176;2022-07-04T04:24:40;18.70;99.90
27270;DHT22;14769;56.934;24.176;2022-07-04T04:25:43;18.80;99.90
27270;DHT22;14769;56.934;24.176;2022-07-04T04:26:44;18.80;99.90
27270;DHT22;14769;56.934;24.176;2022-07-04T04:27:46;18.90;99.90
27270;DHT22;14769;56.934;24.176;2022-07-04T04:28:48;18.80;99.90
27270;DHT22;14769;56.934;24.176;2022-07-04T04:29:50;18.90;99.90
27270;DHT22;14769;56.934;24.176;2022-07-04T04:30:52;18.90;99.90
27270;DHT22;14769;56.934;24.176;2022-07-04T04:31:54;18.90;99.90
27270;DHT22;14769;56.934;24.176;2022-07-04T04:32:56;19.00;99.90
27270;DHT22;14769;56.934;24.176;2022-07-04T04:33:58;19.00;99.90
27270;DHT22;14769;56.934;24.176;2022-07-04T04:35:00;19.00;99.90
27270;DHT22;14769;56.934;24.176;2022-07-04T04:36:02;19.00;99.90
27270;DHT22;14769;56.934;24.176;2022-07-04T04:37:04;19.00;99.90
27270;DHT22;14769;56.934;24.176;2022-07-04T04:38:06;19.10;99.90
27270;DHT22;14769;56.934;24.176;2022-07-04T04:39:08;19.00;99.90
27270;DHT22;14769;56.934;24.176;2022-07-04T04:40:10;19.10;99.90
27270;DHT22;14769;56.934;24.176;2022-07-04T04:41:12;19.10;99.90
27270;DHT22;14769;56.934;24.176;2022-07-04T04:42:14;19.10;99.90
27270;DHT22;14769;56.934;24.176;2022-07-04T04:43:16;19.10;99.90
27270;DHT22;14769;56.934;24.176;2022-07-04T04:44:18;19.10;99.90
27270;DHT22;14769;56.934;24.176;2022-07-04T04:45:21;19.10;99.90
27270;DHT22;14769;56.934;24.176;2022-07-04T04:46:22;19.10;99.90
27270;DHT22;14769;56.934;24.176;2022-07-04T04:47:24;19.10;99.90
27270;DHT22;14769;56.934;24.176;2022-07-04T04:48:26;19.10;99.90
27270;DHT22;14769;56.934;24.176;2022-07-04T04:49:28;19.00;99.90
27270;DHT22;14769;56.934;24.176;2022-07-04T04:50:30;19.10;99.90
27270;DHT22;14769;56.934;24.176;2022-07-04T04:51:32;19.10;99.90
27270;DHT22;14769;56.934;24.176;2022-07-04T04:52:33;19.10;99.90
27270;DHT22;14769;56.934;24.176;2022-07-04T04:53:35;19.10;99.90
27270;DHT22;14769;56.934;24.176;2022-07-04T04:54:38;19.10;99.90
27270;DHT22;14769;56.934;24.176;2022-07-04T04:55:40;19.20;99.90
27270;DHT22;14769;56.934;24.176;2022-07-04T04:56:42;19.20;99.90
27270;DHT22;14769;56.934;24.176;2022-07-04T04:57:43;19.20;99.90
27270;DHT22;14769;56.934;24.176;2022-07-04T04:58:45;19.20;99.90
27270;DHT22;14769;56.934;24.176;2022-07-04T04:59:47;19.20;99.90
27270;DHT22;14769;56.934;24.176;2022-07-04T05:00:55;19.30;99.90
27270;DHT22;14769;56.934;24.176;2022-07-04T05:02:17;19.30;99.90
27270;DHT22;14769;56.934;24.176;2022-07-04T05:03:19;19.30;99.90
27270;DHT22;14769;56.934;24.176;2022-07-04T05:04:21;19.30;99.90
27270;DHT22;14769;56.934;24.176;2022-07-04T05:05:23;19.30;99.90
27270;DHT22;14769;56.934;24.176;2022-07-04T05:06:25;19.30;99.90
27270;DHT22;14769;56.934;24.176;2022-07-04T05:07:27;19.30;99.90
27270;DHT22;14769;56.934;24.176;2022-07-04T05:08:29;19.40;99.90
27270;DHT22;14769;56.934;24.176;2022-07-04T05:09:31;19.50;99.90
27270;DHT22;14769;56.934;24.176;2022-07-04T05:10:33;19.50;99.90
27270;DHT22;14769;56.934;24.176;2022-07-04T05:11:35;19.50;99.90
27270;DHT22;14769;56.934;24.176;2022-07-04T05:12:37;19.50;99.90
27270;DHT22;14769;56.934;24.176;2022-07-04T05:13:40;19.60;99.90
27270;DHT22;14769;56.934;24.176;2022-07-04T05:14:42;19.70;99.90
27270;DHT22;14769;56.934;24.176;2022-07-04T05:15:45;19.70;99.90
27270;DHT22;14769;56.934;24.176;2022-07-04T05:16:47;19.70;99.90
27270;DHT22;14769;56.934;24.176;2022-07-04T05:17:49;19.80;99.90
27270;DHT22;14769;56.934;24.176;2022-07-04T05:18:52;19.80;99.90
27270;DHT22;14769;56.934;24.176;2022-07-04T05:19:53;19.80;99.90
27270;DHT22;14769;56.934;24.176;2022-07-04T05:20:55;19.80;99.90
27270;DHT22;14769;56.934;24.176;2022-07-04T05:21:57;19.90;99.90
27270;DHT22;14769;56.934;24.176;2022-07-04T05:22:59;20.00;99.90
27270;DHT22;14769;56.934;24.176;2022-07-04T05:24:01;20.00;99.90
27270;DHT22;14769;56.934;24.176;2022-07-04T05:25:03;20.10;99.90
27270;DHT22;14769;56.934;24.176;2022-07-04T05:26:05;20.10;99.90
27270;DHT22;14769;56.934;24.176;2022-07-04T05:27:07;20.10;99.90
27270;DHT22;14769;56.934;24.176;2022-07-04T05:28:09;20.20;99.90
27270;DHT22;14769;56.934;24.176;2022-07-04T05:29:11;20.20;99.90
27270;DHT22;14769;56.934;24.176;2022-07-04T05:30:13;20.20;99.90
27270;DHT22;14769;56.934;24.176;2022-07-04T05:31:16;20.30;99.90
27270;DHT22;14769;56.934;24.176;2022-07-04T05:32:18;20.30;99.90
27270;DHT22;14769;56.934;24.176;2022-07-04T05:33:20;20.40;99.90
27270;DHT22;14769;56.934;24.176;2022-07-04T05:34:21;20.40;99.90
27270;DHT22;14769;56.934;24.176;2022-07-04T05:35:24;20.50;99.90
27270;DHT22;14769;56.934;24.176;2022-07-04T05:36:26;20.60;99.90
27270;DHT22;14769;56.934;24.176;2022-07-04T05:37:30;20.70;99.90
27270;DHT22;14769;56.934;24.176;2022-07-04T05:38:32;20.70;99.90
27270;DHT22;14769;56.934;24.176;2022-07-04T05:39:34;20.70;99.90
27270;DHT22;14769;56.934;24.176;2022-07-04T05:40:36;20.70;99.90
27270;DHT22;14769;56.934;24.176;2022-07-04T05:41:37;20.70;99.90
27270;DHT22;14769;56.934;24.176;2022-07-04T05:42:39;20.70;99.90
27270;DHT22;14769;56.934;24.176;2022-07-04T05:43:41;20.80;99.90
27270;DHT22;14769;56.934;24.176;2022-07-04T05:44:43;20.80;99.90
27270;DHT22;14769;56.934;24.176;2022-07-04T05:45:46;20.90;99.90
27270;DHT22;14769;56.934;24.176;2022-07-04T05:46:50;21.00;99.90
27270;DHT22;14769;56.934;24.176;2022-07-04T05:47:52;21.00;99.90
27270;DHT22;14769;56.934;24.176;2022-07-04T05:48:54;21.10;99.90
27270;DHT22;14769;56.934;24.176;2022-07-04T05:49:55;21.10;99.90
27270;DHT22;14769;56.934;24.176;2022-07-04T05:50:58;21.20;99.90
27270;DHT22;14769;56.934;24.176;2022-07-04T05:52:00;21.20;99.90
27270;DHT22;14769;56.934;24.176;2022-07-04T05:53:02;21.20;99.90
27270;DHT22;14769;56.934;24.176;2022-07-04T05:54:03;21.20;99.90
27270;DHT22;14769;56.934;24.176;2022-07-04T05:55:06;21.30;99.90
27270;DHT22;14769;56.934;24.176;2022-07-04T05:56:08;21.30;99.90
27270;DHT22;14769;56.934;24.176;2022-07-04T05:57:10;21.40;99.90
27270;DHT22;14769;56.934;24.176;2022-07-04T05:58:14;21.40;99.90
27270;DHT22;14769;56.934;24.176;2022-07-04T05:59:17;21.40;99.90
27270;DHT22;14769;56.934;24.176;2022-07-04T06:00:19;21.40;99.90
27270;DHT22;14769;56.934;24.176;2022-07-04T06:01:21;21.50;99.90
27270;DHT22;14769;56.934;24.176;2022-07-04T06:02:23;21.50;99.90
27270;DHT22;14769;56.934;24.176;2022-07-04T06:03:25;21.50;99.90
27270;DHT22;14769;56.934;24.176;2022-07-04T06:04:27;21.50;99.90
27270;DHT22;14769;56.934;24.176;2022-07-04T06:05:29;21.50;99.90
27270;DHT22;14769;56.934;24.176;2022-07-04T06:06:31;21.40;99.90
27270;DHT22;14769;56.934;24.176;2022-07-04T06:07:33;21.40;99.90
27270;DHT22;14769;56.934;24.176;2022-07-04T06:08:35;21.40;99.90
27270;DHT22;14769;56.934;24.176;2022-07-04T06:09:37;21.50;99.90
27270;DHT22;14769;56.934;24.176;2022-07-04T06:10:39;21.40;99.90
27270;DHT22;14769;56.934;24.176;2022-07-04T06:11:40;21.40;99.90
27270;DHT22;14769;56.934;24.176;2022-07-04T06:12:42;21.40;99.90
27270;DHT22;14769;56.934;24.176;2022-07-04T06:13:44;21.50;99.90
27270;DHT22;14769;56.934;24.176;2022-07-04T06:14:46;21.50;99.90
27270;DHT22;14769;56.934;24.176;2022-07-04T06:15:48;21.50;99.90
27270;DHT22;14769;56.934;24.176;2022-07-04T06:16:50;21.50;99.90
27270;DHT22;14769;56.934;24.176;2022-07-04T06:17:52;21.50;99.90
27270;DHT22;14769;56.934;24.176;2022-07-04T06:18:53;21.50;99.90
27270;DHT22;14769;56.934;24.176;2022-07-04T06:19:55;21.60;99.90
27270;DHT22;14769;56.934;24.176;2022-07-04T06:20:57;21.50;99.90
27270;DHT22;14769;56.934;24.176;2022-07-04T06:21:59;21.50;99.90
27270;DHT22;14769;56.934;24.176;2022-07-04T06:23:03;21.50;99.90
27270;DHT22;14769;56.934;24.176;2022-07-04T06:24:05;21.60;99.90
27270;DHT22;14769;56.934;24.176;2022-07-04T06:25:11;21.60;99.90
27270;DHT22;14769;56.934;24.176;2022-07-04T06:26:12;21.70;99.90
27270;DHT22;14769;56.934;24.176;2022-07-04T06:27:14;21.80;99.90
27270;DHT22;14769;56.934;24.176;2022-07-04T06:28:16;21.90;99.90